createdAt,value
2019-05-22T00:01:16.083Z,14.30
2019-05-22T00:03:51.483Z,13.90
2019-05-22T00:06:24.155Z,14.30
2019-05-22T00:08:52.133Z,14.00
2019-05-22T00:11:21.248Z,13.90
2019-05-22T00:13:50.646Z,14.20
2019-05-22T00:16:21.391Z,13.90
2019-05-22T00:18:51.942Z,14.30
2019-05-22T00:21:20.906Z,13.50
2019-05-22T00:23:51.842Z,13.70
2019-05-22T00:26:21.416Z,13.80
2019-05-22T00:28:49.418Z,13.40
2019-05-22T00:31:18.855Z,13.80
2019-05-22T00:33:47.025Z,13.80
2019-05-22T00:36:16.895Z,13.60
2019-05-22T00:38:45.805Z,13.60
2019-05-22T00:41:20.020Z,14.00
2019-05-22T00:43:50.925Z,14.10
2019-05-22T00:46:20.283Z,13.90
2019-05-22T00:48:48.580Z,14.20
2019-05-22T00:51:26.139Z,14.30
2019-05-22T00:54:18.382Z,14.20
2019-05-22T00:56:56.400Z,13.90
2019-05-22T00:59:33.777Z,14.20
2019-05-22T01:02:05.475Z,14.10
2019-05-22T01:04:46.404Z,13.90
2019-05-22T01:07:17.854Z,13.70
2019-05-22T01:09:48.087Z,13.80
2019-05-22T01:12:26.655Z,13.50
2019-05-22T01:15:03.656Z,13.40
2019-05-22T01:17:35.767Z,13.50
2019-05-22T01:20:10.549Z,13.70
2019-05-22T01:22:41.216Z,13.80
2019-05-22T01:25:11.236Z,13.70
2019-05-22T01:27:41.561Z,13.60
2019-05-22T01:30:15.227Z,13.50
2019-05-22T01:32:47.198Z,13.80
2019-05-22T01:35:16.219Z,13.50
2019-05-22T01:37:44.154Z,14.10
2019-05-22T01:40:25.956Z,14.10
2019-05-22T01:42:56.218Z,14.20
2019-05-22T01:45:24.992Z,14.00
2019-05-22T01:48:01.819Z,14.30
2019-05-22T01:51:03.264Z,13.90
2019-05-22T01:53:36.901Z,13.80
2019-05-22T01:56:08.269Z,13.80
2019-05-22T01:58:40.650Z,13.60
2019-05-22T02:01:13.696Z,13.50
2019-05-22T02:03:44.103Z,13.50
2019-05-22T02:06:12.011Z,13.50
2019-05-22T02:08:47.271Z,13.40
2019-05-22T02:11:21.320Z,13.40
2019-05-22T02:13:56.700Z,13.40
2019-05-22T02:16:26.017Z,13.50
2019-05-22T02:18:53.937Z,13.30
2019-05-22T02:21:23.413Z,13.50
2019-05-22T02:23:52.180Z,13.60
2019-05-22T02:26:20.207Z,13.40
2019-05-22T02:28:48.942Z,13.60
2019-05-22T02:31:20.619Z,13.80
2019-05-22T02:34:07.101Z,13.40
2019-05-22T02:36:37.728Z,13.60
2019-05-22T02:39:20.758Z,13.50
2019-05-22T02:41:53.449Z,13.00
2019-05-22T02:44:22.499Z,13.40
2019-05-22T02:46:52.610Z,13.40
2019-05-22T02:49:22.725Z,13.50
2019-05-22T02:51:53.365Z,13.50
2019-05-22T02:54:21.823Z,13.50
2019-05-22T02:56:50.940Z,13.40
2019-05-22T02:59:20.548Z,13.80
2019-05-22T03:01:49.277Z,13.50
2019-05-22T03:04:19.030Z,14.10
2019-05-22T03:06:47.677Z,13.90
2019-05-22T03:09:30.271Z,13.90
2019-05-22T03:12:10.913Z,13.90
2019-05-22T03:14:39.522Z,13.80
2019-05-22T03:17:26.941Z,13.90
2019-05-22T03:20:00.844Z,13.50
2019-05-22T03:22:36.102Z,13.50
2019-05-22T03:25:10.769Z,13.60
2019-05-22T03:27:46.433Z,13.70
2019-05-22T03:30:26.375Z,13.80
2019-05-22T03:32:55.733Z,13.90
2019-05-22T03:35:26.038Z,13.40
2019-05-22T03:37:56.296Z,13.70
2019-05-22T03:40:26.368Z,13.10
2019-05-22T03:42:56.619Z,13.30
2019-05-22T03:45:25.035Z,13.40
2019-05-22T03:47:53.743Z,13.10
2019-05-22T03:50:23.358Z,13.10
2019-05-22T03:52:53.243Z,13.20
2019-05-22T03:55:22.393Z,13.30
2019-05-22T03:57:50.652Z,13.20
2019-05-22T04:00:21.178Z,13.10
2019-05-22T04:02:52.711Z,13.30
2019-05-22T04:05:21.764Z,13.40
2019-05-22T04:07:53.078Z,13.60
2019-05-22T04:10:25.350Z,13.40
2019-05-22T04:12:53.621Z,13.40
2019-05-22T04:15:22.716Z,13.40
2019-05-22T04:17:51.800Z,13.80
2019-05-22T04:20:20.933Z,13.60
2019-05-22T04:22:55.597Z,13.40
2019-05-22T04:25:24.311Z,13.50
2019-05-22T04:27:52.984Z,13.60
2019-05-22T04:30:20.979Z,13.40
2019-05-22T04:32:49.238Z,13.70
2019-05-22T04:35:20.536Z,13.50
2019-05-22T04:37:49.083Z,13.70
2019-05-22T04:40:56.169Z,13.80
2019-05-22T04:43:28.836Z,13.80
2019-05-22T04:45:58.717Z,13.80
2019-05-22T04:48:28.762Z,13.70
2019-05-22T04:51:18.075Z,13.80
2019-05-22T04:56:23.237Z,13.90
2019-05-22T04:58:52.151Z,14.20
2019-05-22T05:01:20.746Z,13.90
2019-05-22T05:03:49.221Z,14.00
2019-05-22T05:06:20.645Z,14.00
2019-05-22T05:08:48.815Z,14.70
2019-05-22T05:11:17.971Z,14.70
2019-05-22T05:13:46.279Z,13.90
2019-05-22T05:16:14.013Z,14.10
2019-05-22T05:18:42.260Z,14.40
2019-05-22T05:21:10.389Z,14.20
2019-05-22T05:23:38.179Z,14.80
2019-05-22T05:26:06.174Z,14.70
2019-05-22T05:28:34.126Z,14.50
2019-05-22T05:31:02.141Z,14.40
2019-05-22T05:33:38.666Z,14.10
2019-05-22T05:36:07.221Z,14.20
2019-05-22T05:38:38.330Z,14.30
2019-05-22T05:41:07.042Z,14.50
2019-05-22T05:43:36.585Z,14.40
2019-05-22T05:46:05.058Z,14.20
2019-05-22T05:48:35.389Z,14.60
2019-05-22T05:51:40.282Z,14.70
2019-05-22T05:54:20.024Z,15.10
2019-05-22T05:56:49.988Z,14.80
2019-05-22T05:59:21.295Z,14.80
2019-05-22T06:01:55.460Z,14.70
2019-05-22T06:04:34.982Z,14.80
2019-05-22T06:07:24.718Z,14.80
2019-05-22T06:11:00.131Z,14.70
2019-05-22T06:13:28.859Z,14.50
2019-05-22T06:17:28.306Z,14.40
2019-05-22T06:19:59.453Z,14.80
2019-05-22T06:22:28.829Z,14.80
2019-05-22T06:25:01.387Z,14.70
2019-05-22T06:27:43.596Z,14.70
2019-05-22T06:30:16.573Z,14.50
2019-05-22T06:33:33.717Z,15.00
2019-05-22T06:36:07.717Z,15.20
2019-05-22T06:39:14.847Z,15.20
2019-05-22T06:41:44.777Z,15.70
2019-05-22T06:44:32.721Z,15.10
2019-05-22T06:47:01.366Z,15.30
2019-05-22T06:49:41.290Z,15.30
2019-05-22T06:52:09.581Z,15.10
2019-05-22T06:54:38.659Z,15.30
2019-05-22T06:57:11.818Z,14.60
2019-05-22T06:59:42.877Z,15.20
2019-05-22T07:02:13.162Z,15.20
2019-05-22T07:04:42.088Z,15.20
2019-05-22T07:07:12.401Z,15.10
2019-05-22T07:09:41.376Z,14.90
2019-05-22T07:12:12.444Z,15.40
2019-05-22T07:15:19.934Z,15.70
2019-05-22T07:17:52.051Z,15.70
2019-05-22T07:20:21.781Z,15.70
2019-05-22T07:22:49.769Z,15.70
2019-05-22T07:25:18.090Z,15.70
2019-05-22T07:27:47.370Z,15.60
2019-05-22T07:30:16.018Z,15.60
2019-05-22T07:32:44.232Z,15.70
2019-05-22T07:35:12.786Z,15.80
2019-05-22T07:37:42.817Z,15.70
2019-05-22T07:40:12.118Z,16.10
2019-05-22T07:42:40.648Z,16.30
2019-05-22T07:45:09.080Z,16.30
2019-05-22T07:47:37.296Z,16.70
2019-05-22T07:50:05.905Z,17.90
2019-05-22T07:52:35.936Z,18.20
2019-05-22T07:55:04.442Z,18.60
2019-05-22T07:57:33.384Z,19.30
2019-05-22T08:00:01.481Z,20.30
2019-05-22T08:02:38.189Z,21.80
2019-05-22T08:05:06.339Z,22.30
2019-05-22T08:07:36.666Z,22.60
2019-05-22T08:10:05.614Z,23.30
2019-05-22T08:12:34.129Z,24.30
2019-05-22T08:15:03.019Z,23.50
2019-05-22T08:17:31.685Z,24.50
2019-05-22T08:19:59.403Z,24.50
2019-05-22T08:22:29.228Z,25.70
2019-05-22T08:24:57.541Z,24.80
2019-05-22T08:27:26.055Z,24.30
2019-05-22T08:29:56.862Z,24.40
2019-05-22T08:32:27.879Z,24.40
2019-05-22T08:34:56.235Z,24.70
2019-05-22T08:37:30.337Z,24.20
2019-05-22T08:39:59.972Z,24.40
2019-05-22T08:42:28.346Z,25.30
2019-05-22T08:44:56.367Z,26.30
2019-05-22T08:47:24.759Z,26.00
2019-05-22T08:49:53.613Z,26.00
2019-05-22T08:52:24.249Z,25.40
2019-05-22T08:54:53.726Z,24.30
2019-05-22T08:57:23.863Z,24.70
2019-05-22T08:59:51.704Z,24.90
2019-05-22T09:02:21.256Z,26.10
2019-05-22T09:04:49.312Z,26.00
2019-05-22T09:07:17.565Z,26.10
2019-05-22T09:09:45.341Z,24.60
2019-05-22T09:12:13.946Z,24.10
2019-05-22T09:14:42.371Z,24.30
2019-05-22T09:17:10.906Z,23.20
2019-05-22T09:19:38.946Z,22.70
2019-05-22T09:22:08.234Z,22.80
2019-05-22T09:24:38.523Z,22.10
2019-05-22T09:27:06.824Z,22.70
2019-05-22T09:29:34.944Z,23.30
2019-05-22T09:32:03.830Z,23.60
2019-05-22T09:34:32.339Z,23.20
2019-05-22T09:37:01.777Z,23.20
2019-05-22T09:39:31.246Z,23.90
2019-05-22T09:41:59.155Z,24.30
2019-05-22T09:44:27.219Z,24.40
2019-05-22T09:46:55.410Z,25.00
2019-05-22T09:49:24.417Z,25.40
2019-05-22T09:51:52.401Z,24.30
2019-05-22T09:54:20.657Z,23.60
2019-05-22T09:56:48.600Z,24.00
2019-05-22T09:59:16.798Z,24.00
2019-05-22T10:01:45.250Z,24.20
2019-05-22T10:04:13.453Z,23.70
2019-05-22T10:06:41.593Z,23.70
2019-05-22T10:09:09.706Z,23.60
2019-05-22T10:11:37.524Z,24.30
2019-05-22T10:14:06.921Z,24.70
2019-05-22T10:16:34.967Z,24.70
2019-05-22T10:19:03.543Z,24.10
2019-05-22T10:21:32.019Z,23.70
2019-05-22T10:23:59.905Z,24.30
2019-05-22T10:26:28.708Z,24.10
2019-05-22T10:28:56.805Z,23.40
2019-05-22T10:31:24.820Z,23.70
2019-05-22T10:33:53.234Z,24.20
2019-05-22T10:36:21.250Z,24.00
2019-05-22T10:38:49.515Z,24.00
2019-05-22T10:41:18.482Z,23.70
2019-05-22T10:43:46.711Z,23.80
2019-05-22T10:46:14.625Z,23.50
2019-05-22T10:48:42.740Z,22.90
2019-05-22T10:51:11.318Z,22.50
2019-05-22T10:53:39.266Z,22.40
2019-05-22T10:56:07.403Z,22.50
2019-05-22T10:58:35.324Z,22.40
2019-05-22T11:01:03.493Z,22.40
2019-05-22T11:03:32.585Z,21.80
2019-05-22T11:06:07.106Z,22.40
2019-05-22T11:08:34.394Z,22.30
2019-05-22T11:11:01.410Z,22.50
2019-05-22T11:13:29.243Z,22.50
2019-05-22T11:15:58.473Z,22.20
2019-05-22T11:18:27.096Z,22.50
2019-05-22T11:20:55.257Z,22.40
2019-05-22T11:23:24.457Z,22.40
2019-05-22T11:25:52.337Z,22.60
2019-05-22T11:28:20.406Z,23.10
2019-05-22T11:30:48.485Z,23.30
2019-05-22T11:33:16.345Z,23.60
2019-05-22T11:35:45.026Z,23.10
2019-05-22T11:38:13.611Z,23.40
2019-05-22T11:40:41.618Z,23.30
2019-05-22T11:43:12.377Z,23.10
2019-05-22T11:45:44.995Z,22.60
2019-05-22T11:48:11.087Z,22.50
2019-05-22T11:50:40.310Z,22.50
2019-05-22T11:53:09.073Z,22.60
2019-05-22T11:55:44.714Z,22.60
2019-05-22T11:58:08.652Z,22.30
2019-05-22T12:00:37.583Z,22.30
2019-05-22T12:03:06.014Z,21.70
2019-05-22T12:05:38.764Z,21.70
2019-05-22T12:08:07.494Z,21.90
2019-05-22T12:10:37.289Z,21.70
2019-05-22T12:13:06.720Z,22.40
2019-05-22T12:15:35.396Z,22.20
2019-05-22T12:18:04.567Z,22.50
2019-05-22T12:20:32.976Z,22.70
2019-05-22T12:23:01.440Z,22.80
2019-05-22T12:25:29.736Z,22.80
2019-05-22T12:27:59.282Z,22.80
2019-05-22T12:30:28.154Z,22.60
2019-05-22T12:32:57.309Z,22.40
2019-05-22T12:35:25.994Z,22.70
2019-05-22T12:37:55.267Z,22.50
2019-05-22T12:40:24.507Z,22.90
2019-05-22T12:42:53.240Z,23.00
2019-05-22T12:45:31.410Z,22.60
2019-05-22T12:48:00.801Z,22.20
2019-05-22T12:50:30.425Z,22.50
2019-05-22T12:53:00.669Z,22.90
2019-05-22T12:55:29.194Z,22.50
2019-05-22T12:57:59.483Z,22.50
2019-05-22T13:00:29.902Z,21.80
2019-05-22T13:03:00.339Z,21.70
2019-05-22T13:05:29.462Z,21.60
2019-05-22T13:07:57.884Z,21.70
2019-05-22T13:10:26.587Z,21.80
2019-05-22T13:12:55.160Z,21.80
2019-05-22T13:15:25.368Z,22.20
2019-05-22T13:17:54.887Z,22.50
2019-05-22T13:20:41.005Z,22.10
2019-05-22T13:22:59.400Z,22.10
2019-05-22T13:25:33.435Z,22.00
2019-05-22T13:28:05.111Z,22.50
2019-05-22T13:30:37.022Z,22.50
2019-05-22T13:33:05.368Z,22.60
2019-05-22T13:35:34.565Z,22.60
2019-05-22T13:38:04.142Z,22.60
2019-05-22T13:40:32.520Z,22.60
2019-05-22T13:43:01.298Z,22.70
2019-05-22T13:45:31.252Z,22.50
2019-05-22T13:47:59.459Z,22.50
2019-05-22T13:50:28.971Z,23.00
2019-05-22T13:53:00.424Z,22.60
2019-05-22T13:55:28.681Z,22.40
2019-05-22T13:57:58.273Z,22.00
2019-05-22T14:00:27.607Z,21.60
2019-05-22T14:02:56.164Z,21.70
2019-05-22T14:05:26.922Z,21.70
2019-05-22T14:07:55.420Z,21.60
2019-05-22T14:10:26.798Z,21.80
2019-05-22T14:12:55.617Z,22.00
2019-05-22T14:15:24.949Z,21.80
2019-05-22T14:17:52.916Z,21.90
2019-05-22T14:20:21.865Z,22.40
2019-05-22T14:22:49.788Z,22.70
2019-05-22T14:25:20.366Z,23.10
2019-05-22T14:27:48.658Z,22.80
2019-05-22T14:30:21.778Z,22.80
2019-05-22T14:32:49.614Z,23.00
2019-05-22T14:35:19.763Z,22.60
2019-05-22T14:37:49.973Z,23.40
2019-05-22T14:40:18.385Z,23.20
2019-05-22T14:42:46.381Z,23.20
2019-05-22T14:45:14.760Z,22.50
2019-05-22T14:47:43.746Z,22.30
2019-05-22T14:50:13.538Z,22.90
2019-05-22T14:52:41.539Z,22.80
2019-05-22T14:55:09.831Z,23.20
2019-05-22T14:57:38.323Z,23.10
2019-05-22T15:00:09.470Z,23.50
2019-05-22T15:02:39.912Z,23.50
2019-05-22T15:05:09.299Z,23.90
2019-05-22T15:07:44.659Z,23.80
2019-05-22T15:10:16.842Z,23.60
2019-05-22T15:12:44.646Z,23.00
2019-05-22T15:15:14.584Z,22.80
2019-05-22T15:17:43.163Z,23.00
2019-05-22T15:20:18.196Z,22.40
2019-05-22T15:22:49.107Z,22.60
2019-05-22T15:34:03.550Z,22.70
2019-05-22T15:39:22.981Z,23.20
2019-05-22T15:41:51.390Z,23.00
2019-05-22T15:44:19.952Z,23.00
2019-05-22T15:46:49.342Z,23.20
2019-05-22T15:49:19.049Z,22.80
2019-05-22T15:51:48.107Z,22.60
2019-05-22T15:54:18.930Z,23.10
2019-05-22T15:56:47.661Z,23.20
2019-05-22T15:59:17.324Z,22.40
2019-05-22T16:01:49.229Z,22.10
2019-05-22T16:04:19.605Z,22.50
2019-05-22T16:06:48.780Z,22.50
2019-05-22T16:09:17.331Z,22.30
2019-05-22T16:11:51.468Z,22.40
2019-05-22T16:14:21.489Z,22.50
2019-05-22T16:16:50.689Z,22.40
2019-05-22T16:19:24.670Z,21.90
2019-05-22T16:21:55.146Z,21.90
2019-05-22T16:24:23.803Z,22.50
2019-05-22T16:26:51.904Z,22.40
2019-05-22T16:29:21.185Z,21.70
2019-05-22T16:31:50.136Z,21.90
2019-05-22T16:34:18.229Z,21.90
2019-05-22T16:36:46.545Z,21.90
2019-05-22T16:39:16.574Z,21.70
2019-05-22T16:41:45.010Z,21.90
2019-05-22T16:44:14.349Z,22.30
2019-05-22T16:46:44.253Z,22.00
2019-05-22T16:49:13.168Z,21.80
2019-05-22T16:51:44.126Z,21.80
2019-05-22T16:54:12.323Z,21.80
2019-05-22T16:56:42.382Z,21.80
2019-05-22T16:59:12.007Z,21.50
2019-05-22T17:01:57.849Z,21.70
2019-05-22T17:04:11.575Z,21.70
2019-05-22T17:06:43.756Z,21.30
2019-05-22T17:09:13.617Z,21.70
2019-05-22T17:11:41.606Z,21.60
2019-05-22T17:14:12.453Z,21.20
2019-05-22T17:16:42.656Z,21.70
2019-05-22T17:19:26.358Z,21.10
2019-05-22T17:21:43.616Z,21.20
2019-05-22T17:24:13.596Z,21.10
2019-05-22T17:26:41.760Z,20.90
2019-05-22T17:29:10.730Z,21.00
2019-05-22T17:31:38.829Z,21.00
2019-05-22T17:34:26.292Z,21.00
2019-05-22T17:36:56.780Z,21.00
2019-05-22T17:39:26.328Z,21.00
2019-05-22T17:41:56.494Z,20.40
2019-05-22T17:44:25.901Z,21.00
2019-05-22T17:46:53.940Z,20.50
2019-05-22T17:49:22.171Z,20.70
2019-05-22T17:51:51.330Z,20.30
2019-05-22T17:54:20.770Z,20.20
2019-05-22T17:56:48.777Z,20.50
2019-05-22T17:59:16.843Z,20.20
2019-05-22T18:01:46.696Z,20.40
2019-05-22T18:04:15.191Z,20.30
2019-05-22T18:06:43.260Z,20.30
2019-05-22T18:09:15.021Z,20.30
2019-05-22T18:11:44.122Z,19.90
2019-05-22T18:14:14.461Z,20.20
2019-05-22T18:16:43.483Z,20.40
2019-05-22T18:19:11.764Z,20.40
2019-05-22T18:21:40.622Z,20.20
2019-05-22T18:24:09.856Z,20.20
2019-05-22T18:26:37.713Z,19.90
2019-05-22T18:29:05.771Z,19.70
2019-05-22T18:31:33.915Z,19.90
2019-05-22T18:34:01.758Z,19.50
2019-05-22T18:36:29.735Z,19.60
2019-05-22T18:38:57.804Z,19.50
2019-05-22T18:41:26.030Z,19.60
2019-05-22T18:43:56.183Z,19.80
2019-05-22T18:46:24.872Z,19.70
2019-05-22T18:48:52.643Z,19.80
2019-05-22T18:51:21.192Z,19.50
2019-05-22T18:53:49.540Z,19.70
2019-05-22T18:56:17.587Z,19.60
2019-05-22T18:58:45.875Z,19.60
2019-05-22T19:01:16.293Z,19.60
2019-05-22T19:03:44.168Z,19.70
2019-05-22T19:06:12.163Z,19.20
2019-05-22T19:08:40.677Z,18.90
2019-05-22T19:11:09.485Z,18.90
2019-05-22T19:13:37.873Z,19.00
2019-05-22T19:16:06.824Z,19.00
2019-05-22T19:18:34.815Z,18.90
2019-05-22T19:21:03.517Z,19.00
2019-05-22T19:23:31.494Z,18.80
2019-05-22T19:25:59.306Z,18.90
2019-05-22T19:28:42.040Z,18.80
2019-05-22T19:30:57.548Z,18.80
2019-05-22T19:33:26.198Z,18.30
2019-05-22T19:35:54.186Z,18.30
2019-05-22T19:38:23.058Z,18.40
2019-05-22T19:40:51.769Z,18.30
2019-05-22T19:43:19.885Z,18.30
2019-05-22T19:45:48.326Z,18.20
2019-05-22T19:48:17.001Z,18.10
2019-05-22T19:50:46.617Z,17.80
2019-05-22T19:53:19.300Z,17.60
2019-05-22T19:55:47.583Z,17.80
2019-05-22T19:58:15.444Z,17.70
2019-05-22T20:00:44.748Z,17.60
2019-05-22T20:03:12.840Z,17.70
2019-05-22T20:05:41.159Z,17.60
2019-05-22T20:08:10.553Z,16.90
2019-05-22T20:10:39.115Z,17.00
2019-05-22T20:13:09.387Z,17.00
2019-05-22T20:15:37.943Z,16.90
2019-05-22T20:18:07.309Z,17.00
2019-05-22T20:20:36.695Z,16.10
2019-05-22T20:23:04.768Z,16.30
2019-05-22T20:25:34.392Z,16.40
2019-05-22T20:28:06.410Z,16.60
2019-05-22T20:30:34.256Z,16.40
2019-05-22T20:33:03.289Z,16.40
2019-05-22T20:35:31.763Z,16.30
2019-05-22T20:38:01.168Z,16.10
2019-05-22T20:40:29.626Z,16.20
2019-05-22T20:42:58.904Z,16.40
2019-05-22T20:45:29.101Z,16.00
2019-05-22T20:48:13.889Z,15.80
2019-05-22T20:53:19.167Z,15.90
2019-05-22T20:55:49.010Z,15.90
2019-05-22T20:58:18.713Z,15.70
2019-05-22T21:00:48.418Z,15.50
2019-05-22T21:03:17.718Z,15.40
2019-05-22T21:05:45.623Z,15.20
2019-05-22T21:08:15.352Z,15.20
2019-05-22T21:10:46.779Z,15.20
2019-05-22T21:13:18.638Z,15.70
2019-05-22T21:15:49.181Z,15.30
2019-05-22T21:18:20.307Z,15.40
2019-05-22T21:20:54.700Z,15.20
2019-05-22T21:23:19.989Z,14.80
2019-05-22T21:25:58.541Z,15.00
2019-05-22T21:28:27.485Z,15.20
2019-05-22T21:30:56.967Z,15.00
2019-05-22T21:33:26.006Z,14.90
2019-05-22T21:35:55.285Z,14.80
2019-05-22T21:38:25.045Z,14.80
2019-05-22T21:40:55.942Z,14.50
2019-05-22T21:43:23.944Z,14.70
2019-05-22T21:45:53.298Z,14.20
2019-05-22T21:48:21.909Z,14.50
2019-05-22T21:50:49.717Z,14.20
2019-05-22T21:53:19.248Z,14.20
2019-05-22T21:56:02.070Z,14.40
2019-05-22T21:58:18.378Z,14.30
2019-05-22T22:01:22.195Z,14.20
2019-05-22T22:03:57.624Z,14.30
2019-05-22T22:06:26.651Z,14.00
2019-05-22T22:08:55.263Z,14.00
2019-05-22T22:11:25.815Z,13.60
2019-05-22T22:13:54.711Z,14.20
2019-05-22T22:16:22.530Z,13.60
2019-05-22T22:18:52.935Z,13.80
2019-05-22T22:21:21.589Z,13.60
2019-05-22T22:23:50.162Z,13.90
2019-05-22T22:26:25.405Z,13.40
2019-05-22T22:28:48.148Z,13.10
2019-05-22T22:31:20.173Z,13.10
2019-05-22T22:33:55.105Z,13.30
2019-05-22T22:36:23.149Z,13.40
2019-05-22T22:38:52.722Z,13.30
2019-05-22T22:41:20.903Z,13.00
2019-05-22T22:43:52.751Z,13.20
2019-05-22T22:46:39.017Z,13.20
2019-05-22T22:49:12.550Z,13.10
2019-05-22T22:51:42.302Z,13.40
2019-05-22T22:54:12.288Z,13.30
2019-05-22T22:56:41.541Z,13.10
2019-05-22T22:59:09.842Z,12.90
2019-05-22T23:01:40.754Z,12.70
2019-05-22T23:04:10.899Z,12.70
2019-05-22T23:06:40.921Z,12.90
2019-05-22T23:09:12.070Z,12.80
2019-05-22T23:11:41.211Z,12.60
2019-05-22T23:14:10.553Z,12.80
2019-05-22T23:16:40.237Z,12.60
2019-05-22T23:19:43.901Z,12.70
2019-05-22T23:22:19.836Z,12.70
2019-05-22T23:24:49.269Z,12.60
2019-05-22T23:27:18.835Z,12.60
2019-05-22T23:29:47.770Z,12.60
2019-05-22T23:32:18.326Z,12.20
2019-05-22T23:34:47.459Z,12.20
2019-05-22T23:37:17.193Z,12.10
2019-05-22T23:39:47.116Z,12.40
2019-05-22T23:42:21.952Z,12.10
2019-05-22T23:44:53.860Z,12.00
2019-05-22T23:47:23.552Z,12.20
2019-05-22T23:49:52.826Z,12.10
2019-05-22T23:52:21.444Z,12.00
2019-05-22T23:54:56.281Z,12.10
2019-05-22T23:57:27.520Z,12.20
